This is the latest recevied weather packets stored in our database for station/object G1SCQ. If no packets are shown the sender has not sent any weather packets the latest 10 day(s).
| Time | Temp. | Humidity | Pressure | Rain* | Wind** | Luminosity | Snow |
|---|---|---|---|---|---|---|---|
| 1778314144 | 15° C | 63% | 1019.3 hPa | 0 mm | - | 224 W/m² | - |
| 1778313604 | 13.89° C | 67% | 1019.5 hPa | 0 mm | - | 63 W/m² | - |
| 1778313244 | 13.89° C | 69% | 1019.5 hPa | 0 mm | - | 60 W/m² | - |
| 1778312704 | 13.33° C | 73% | 1019.4 hPa | 0 mm | - | 55 W/m² | - |
| 1778312164 | 12.78° C | 75% | 1019.3 hPa | 0 mm | - | 54 W/m² | - |
| 1778311628 | 12.22° C | 81% | 1019.3 hPa | 0 mm | - | 52 W/m² | - |
| 1778311084 | 11.67° C | 87% | 1019.4 hPa | 0 mm | - | 50 W/m² | - |
| 1778310544 | 10.56° C | 94% | 1019.4 hPa | 0 mm | - | 48 W/m² | - |
| 1778310007 | 10° C | 97% | 1019.4 hPa | 0 mm | - | 46 W/m² | - |
| 1778309644 | 10° C | 98% | 1019 hPa | 0 mm | - | 46 W/m² | - |
| 1778309104 | 9.44° C | 98% | 1019.3 hPa | 0 mm | - | 44 W/m² | - |
| 1778308564 | 8.89° C | 99% | 1019.1 hPa | 0 mm | - | 43 W/m² | - |
| 1778308024 | 8.33° C | 99% | 1019.3 hPa | 0 mm | - | 43 W/m² | - |
| 1778307484 | 8.33° C | 99% | 1019.7 hPa | 0 mm | - | 45 W/m² | - |
| 1778306944 | 7.78° C | 99% | 1019.5 hPa | 0 mm | - | 43 W/m² | - |
| 1778306404 | 7.78° C | 99% | 1019.4 hPa | 0 mm | - | 39 W/m² | - |
| 1778306044 | 7.22° C | 99% | 1019.5 hPa | 0 mm | - | 37 W/m² | - |
| 1778305504 | 6.67° C | 99% | 1019.3 hPa | 0 mm | - | 35 W/m² | - |
| 1778304964 | 6.11° C | 99% | 1019.4 hPa | 0 mm | - | 31 W/m² | - |
| 1778304424 | 6.11° C | 99% | 1019.2 hPa | 0 mm | - | 29 W/m² | - |
| 1778303884 | 6.11° C | 98% | 1019.2 hPa | 0 mm | - | 26 W/m² | - |
| 1778303347 | 5.56° C | 99% | 1019.1 hPa | 0 mm | - | 22 W/m² | - |
| 1778302804 | 5.56° C | 99% | 1019.3 hPa | 0 mm | - | 18 W/m² | - |
| 1778302444 | 5.56° C | 99% | 1019.2 hPa | 0 mm | - | 15 W/m² | - |
| 1778301904 | 5.56° C | 99% | 1019.2 hPa | 0 mm | - | 11 W/m² | - |
* Rain latest hour (hover to see other rain measurements)
** Current wind speed in m/s (hover to see current wind gust speed)